createdAt,value
2022-08-16T00:01:57.470Z,65.39
2022-08-16T00:04:29.327Z,65.47
2022-08-16T00:06:58.280Z,65.58
2022-08-16T00:09:27.116Z,65.57
2022-08-16T00:11:56.546Z,65.67
2022-08-16T00:14:30.996Z,65.80
2022-08-16T00:17:15.803Z,65.69
2022-08-16T00:19:45.297Z,65.85
2022-08-16T00:22:15.304Z,66.00
2022-08-16T00:24:46.828Z,66.12
2022-08-16T00:27:18.502Z,66.01
2022-08-16T00:30:08.841Z,66.20
2022-08-16T00:32:43.951Z,66.26
2022-08-16T00:35:16.331Z,66.28
2022-08-16T00:37:57.538Z,66.31
2022-08-16T00:40:34.623Z,66.36
2022-08-16T00:43:11.634Z,66.38
2022-08-16T00:45:58.372Z,66.36
2022-08-16T00:48:40.382Z,66.43
2022-08-16T00:51:17.486Z,66.49
2022-08-16T00:53:47.562Z,66.44
2022-08-16T00:56:56.554Z,66.39
2022-08-16T00:59:16.820Z,66.64
2022-08-16T01:01:48.963Z,66.58
2022-08-16T01:04:29.195Z,66.70
2022-08-16T01:07:01.110Z,66.75
2022-08-16T01:09:34.103Z,66.88
2022-08-16T01:12:04.410Z,66.77
2022-08-16T01:14:44.836Z,66.86
2022-08-16T01:17:19.310Z,66.97
2022-08-16T01:19:51.925Z,66.98
2022-08-16T01:22:48.280Z,66.99
2022-08-16T01:25:34.076Z,66.95
2022-08-16T01:28:20.495Z,66.99
2022-08-16T01:31:12.961Z,67.06
2022-08-16T01:33:44.481Z,66.96
2022-08-16T01:36:13.968Z,67.01
2022-08-16T01:38:51.308Z,66.95
2022-08-16T01:41:30.413Z,67.06
2022-08-16T01:44:01.439Z,67.17
2022-08-16T01:46:39.966Z,67.12
2022-08-16T01:50:42.277Z,67.11
2022-08-16T01:52:41.646Z,67.20
2022-08-16T01:55:46.091Z,67.31
2022-08-16T01:58:48.068Z,67.36
2022-08-16T02:01:18.533Z,67.31
2022-08-16T02:03:50.552Z,67.40
2022-08-16T02:06:34.786Z,67.37
2022-08-16T02:09:11.856Z,67.39
2022-08-16T02:11:48.861Z,67.47
2022-08-16T02:14:26.357Z,67.48
2022-08-16T02:16:56.726Z,67.55
2022-08-16T02:19:59.075Z,67.61
2022-08-16T02:22:34.993Z,67.57
2022-08-16T02:25:14.733Z,67.57
2022-08-16T02:27:45.385Z,67.59
2022-08-16T02:30:37.111Z,67.62
2022-08-16T02:33:15.484Z,67.74
2022-08-16T02:35:54.133Z,67.70
2022-08-16T02:38:27.902Z,67.68
2022-08-16T02:40:57.761Z,67.74
2022-08-16T02:43:33.039Z,67.71
2022-08-16T02:46:08.057Z,67.83
2022-08-16T02:48:39.451Z,67.81
2022-08-16T02:51:19.079Z,67.92
2022-08-16T02:53:52.409Z,67.90
2022-08-16T02:56:22.836Z,67.96
2022-08-16T02:58:52.797Z,67.96
2022-08-16T03:01:37.211Z,67.90
2022-08-16T03:04:29.613Z,67.93
2022-08-16T03:07:12.071Z,67.96
2022-08-16T03:09:46.483Z,67.85
2022-08-16T03:12:19.508Z,67.96
2022-08-16T03:14:48.799Z,68.15
2022-08-16T03:17:19.495Z,68.21
2022-08-16T03:20:02.489Z,68.36
2022-08-16T03:22:36.655Z,68.36
2022-08-16T03:25:12.099Z,68.41
2022-08-16T03:27:51.628Z,68.40
2022-08-16T03:30:23.766Z,68.44
2022-08-16T03:32:55.797Z,68.43
2022-08-16T03:35:32.582Z,68.46
2022-08-16T03:38:32.821Z,68.44
2022-08-16T03:41:17.164Z,68.37
2022-08-16T03:43:57.191Z,68.41
2022-08-16T03:46:47.506Z,68.59
2022-08-16T03:49:22.987Z,68.62
2022-08-16T03:52:08.039Z,68.66
2022-08-16T03:54:38.194Z,68.71
2022-08-16T03:57:22.718Z,68.66
2022-08-16T03:59:51.663Z,68.56
2022-08-16T04:02:22.193Z,68.49
2022-08-16T04:04:53.769Z,68.43
2022-08-16T04:07:22.993Z,68.48
2022-08-16T04:09:53.352Z,68.53
2022-08-16T04:12:53.110Z,68.47
2022-08-16T04:15:14.504Z,68.21
2022-08-16T04:18:01.025Z,68.30
2022-08-16T04:20:36.765Z,68.54
2022-08-16T04:23:08.551Z,68.53
2022-08-16T04:25:39.065Z,68.39
2022-08-16T04:28:51.663Z,68.48
2022-08-16T04:31:00.135Z,68.42
2022-08-16T04:33:35.398Z,68.39
2022-08-16T04:36:05.062Z,68.30
2022-08-16T04:38:34.735Z,68.38
2022-08-16T04:41:04.149Z,68.49
2022-08-16T04:43:37.738Z,68.52
2022-08-16T04:46:07.071Z,68.45
2022-08-16T04:48:55.911Z,68.33
2022-08-16T04:51:26.473Z,68.27
2022-08-16T04:54:05.252Z,68.41
2022-08-16T04:56:35.240Z,68.36
2022-08-16T04:59:11.858Z,68.24
2022-08-16T05:01:58.550Z,68.08
2022-08-16T05:04:30.069Z,68.06
2022-08-16T05:06:58.948Z,68.01
2022-08-16T05:09:39.450Z,68.14
2022-08-16T05:12:22.095Z,68.13
2022-08-16T05:15:02.459Z,68.30
2022-08-16T05:17:35.097Z,68.26
2022-08-16T05:20:38.842Z,68.12
2022-08-16T05:22:59.390Z,67.98
2022-08-16T05:25:29.615Z,67.89
2022-08-16T05:28:10.826Z,67.89
2022-08-16T05:30:43.708Z,67.86
2022-08-16T05:33:18.145Z,67.86
2022-08-16T05:35:55.262Z,67.83
2022-08-16T05:38:36.507Z,67.75
2022-08-16T05:41:10.223Z,67.62
2022-08-16T05:43:46.989Z,67.60
2022-08-16T05:46:29.839Z,67.71
2022-08-16T05:49:06.095Z,67.46
2022-08-16T05:51:41.718Z,67.47
2022-08-16T05:54:14.156Z,67.60
2022-08-16T05:56:48.959Z,67.54
2022-08-16T05:59:19.499Z,67.37
2022-08-16T06:01:51.533Z,67.32
2022-08-16T06:04:34.951Z,67.23
2022-08-16T06:07:08.800Z,66.98
2022-08-16T06:09:43.309Z,67.06
2022-08-16T06:12:27.516Z,67.07
2022-08-16T06:15:09.767Z,67.04
2022-08-16T06:17:42.876Z,66.90
2022-08-16T06:20:24.274Z,66.96
2022-08-16T06:23:03.472Z,67.07
2022-08-16T06:25:40.859Z,67.07
2022-08-16T06:28:17.001Z,67.10
2022-08-16T06:30:46.847Z,67.18
2022-08-16T06:33:19.764Z,67.16
2022-08-16T06:35:55.203Z,67.23
2022-08-16T06:38:32.428Z,67.24
2022-08-16T06:41:13.979Z,67.07
2022-08-16T06:43:44.101Z,66.96
2022-08-16T06:46:31.300Z,66.93
2022-08-16T06:49:01.777Z,66.97
2022-08-16T06:51:48.427Z,67.00
2022-08-16T06:54:22.505Z,67.14
2022-08-16T06:56:54.220Z,66.97
2022-08-16T06:59:25.601Z,66.92
2022-08-16T07:01:58.366Z,66.97
2022-08-16T07:04:33.068Z,66.80
2022-08-16T07:07:14.443Z,66.32
2022-08-16T07:09:44.003Z,66.13
2022-08-16T07:12:15.310Z,66.13
2022-08-16T07:14:48.911Z,66.40
2022-08-16T07:17:21.136Z,66.18
2022-08-16T07:20:30.013Z,65.60
2022-08-16T07:22:58.738Z,66.02
2022-08-16T07:25:51.022Z,66.23
2022-08-16T07:28:24.407Z,66.17
2022-08-16T07:30:55.431Z,65.38
2022-08-16T07:33:51.972Z,64.66
2022-08-16T07:36:26.730Z,63.96
2022-08-16T07:38:58.306Z,63.31
2022-08-16T07:41:28.290Z,62.10
2022-08-16T07:44:00.674Z,61.08
2022-08-16T07:46:37.886Z,60.25
2022-08-16T07:49:19.021Z,58.27
2022-08-16T07:51:49.387Z,57.20
2022-08-16T07:54:37.895Z,56.37
2022-08-16T07:57:11.691Z,55.53
2022-08-16T07:59:42.710Z,55.06
2022-08-16T08:02:20.262Z,55.33
2022-08-16T08:04:59.218Z,54.86
2022-08-16T08:07:34.328Z,54.79
2022-08-16T08:10:11.045Z,54.39
2022-08-16T08:12:40.903Z,54.29
2022-08-16T08:15:15.332Z,53.77
2022-08-16T08:17:54.066Z,52.88
2022-08-16T08:20:29.222Z,52.77
2022-08-16T08:23:01.650Z,52.72
2022-08-16T08:25:52.691Z,53.27
2022-08-16T08:28:23.732Z,53.22
2022-08-16T08:31:02.737Z,52.96
2022-08-16T08:33:43.850Z,52.55
2022-08-16T08:36:23.930Z,52.53
2022-08-16T08:39:12.919Z,53.04
2022-08-16T08:41:43.782Z,52.76
2022-08-16T08:44:28.612Z,52.11
2022-08-16T08:47:09.307Z,51.95
2022-08-16T08:49:46.883Z,51.95
2022-08-16T08:52:35.426Z,51.96
2022-08-16T08:55:13.120Z,51.33
2022-08-16T08:57:46.839Z,51.19
2022-08-16T09:00:51.031Z,50.96
2022-08-16T09:03:24.477Z,50.48
2022-08-16T09:05:57.249Z,50.16
2022-08-16T09:08:26.616Z,50.30
2022-08-16T09:11:17.807Z,49.77
2022-08-16T09:13:49.999Z,49.45
2022-08-16T09:17:03.466Z,49.21
2022-08-16T09:19:10.157Z,48.72
2022-08-16T09:21:38.803Z,48.95
2022-08-16T09:24:10.074Z,48.73
2022-08-16T09:26:45.811Z,48.89
2022-08-16T09:29:24.105Z,48.78
2022-08-16T09:32:09.252Z,48.39
2022-08-16T09:34:39.180Z,48.07
2022-08-16T09:37:14.060Z,48.19
2022-08-16T09:39:50.383Z,48.02
2022-08-16T09:42:19.204Z,47.91
2022-08-16T09:45:10.808Z,47.98
2022-08-16T09:47:56.284Z,47.47
2022-08-16T09:50:36.945Z,47.49
2022-08-16T09:53:18.318Z,47.24
2022-08-16T09:55:50.187Z,47.63
2022-08-16T09:58:41.893Z,48.06
2022-08-16T10:01:11.570Z,48.73
2022-08-16T10:04:02.728Z,48.83
2022-08-16T10:06:33.385Z,49.13
2022-08-16T10:09:05.384Z,49.42
2022-08-16T10:11:54.202Z,49.69
2022-08-16T10:14:24.727Z,49.76
2022-08-16T10:17:05.084Z,50.03
2022-08-16T10:19:34.149Z,50.47
2022-08-16T10:22:04.605Z,50.89
2022-08-16T10:24:34.693Z,51.13
2022-08-16T10:27:25.833Z,51.38
2022-08-16T10:30:01.002Z,51.47
2022-08-16T10:32:32.169Z,51.68
2022-08-16T10:35:03.030Z,51.85
2022-08-16T10:37:36.318Z,51.95
2022-08-16T10:40:29.588Z,52.05
2022-08-16T10:42:59.722Z,52.33
2022-08-16T10:45:36.547Z,52.56
2022-08-16T10:48:27.202Z,52.51
2022-08-16T10:50:57.672Z,52.72
2022-08-16T10:53:27.692Z,52.97
2022-08-16T10:56:52.285Z,53.26
2022-08-16T10:58:57.384Z,53.24
2022-08-16T11:01:40.114Z,53.10
2022-08-16T11:07:08.222Z,52.54
2022-08-16T11:12:23.955Z,52.72
2022-08-16T11:17:45.197Z,52.72
2022-08-16T11:20:42.274Z,53.01
2022-08-16T11:23:11.924Z,52.75
2022-08-16T11:29:12.671Z,52.66
2022-08-16T11:31:23.165Z,52.71
2022-08-16T11:33:52.521Z,52.75
2022-08-16T11:36:27.657Z,53.08
2022-08-16T11:38:59.153Z,53.52
2022-08-16T11:41:32.375Z,53.57
2022-08-16T11:44:01.538Z,53.73
2022-08-16T11:46:44.563Z,53.90
2022-08-16T11:49:15.538Z,54.14
2022-08-16T11:51:44.823Z,54.34
2022-08-16T11:54:20.979Z,54.49
2022-08-16T11:56:57.027Z,54.61
2022-08-16T11:59:29.121Z,54.68
2022-08-16T12:01:59.240Z,54.98
2022-08-16T12:04:28.915Z,55.27
2022-08-16T12:07:01.865Z,55.30
2022-08-16T12:09:32.292Z,55.07
2022-08-16T12:12:02.652Z,55.30
2022-08-16T12:14:35.485Z,55.61
2022-08-16T12:17:08.243Z,55.41
2022-08-16T12:19:38.158Z,55.51
2022-08-16T12:22:19.273Z,55.50
2022-08-16T12:24:51.957Z,55.49
2022-08-16T12:27:23.536Z,55.29
2022-08-16T12:29:53.799Z,55.14
2022-08-16T12:32:35.818Z,55.22
2022-08-16T12:35:14.517Z,55.29
2022-08-16T12:37:46.059Z,55.43
2022-08-16T12:40:24.605Z,55.25
2022-08-16T12:42:58.899Z,55.31
2022-08-16T12:45:30.383Z,54.92
2022-08-16T12:48:35.051Z,54.94
2022-08-16T12:51:13.462Z,55.02
2022-08-16T12:53:51.056Z,55.28
2022-08-16T12:56:21.283Z,55.55
2022-08-16T12:58:51.816Z,55.82
2022-08-16T13:01:23.109Z,56.02
2022-08-16T13:04:08.240Z,56.39
2022-08-16T13:06:43.669Z,56.58
2022-08-16T13:09:21.202Z,56.32
2022-08-16T13:11:59.913Z,56.30
2022-08-16T13:14:33.449Z,56.02
2022-08-16T13:17:07.760Z,56.05
2022-08-16T13:20:05.873Z,56.22
2022-08-16T13:22:25.182Z,56.04
2022-08-16T13:24:55.562Z,56.16
2022-08-16T13:28:03.505Z,56.23
2022-08-16T13:30:36.275Z,55.99
2022-08-16T13:33:10.716Z,55.93
2022-08-16T13:35:43.749Z,55.97
2022-08-16T13:38:24.245Z,55.82
2022-08-16T13:40:57.202Z,55.51
2022-08-16T13:43:32.468Z,55.58
2022-08-16T13:46:04.199Z,55.39
2022-08-16T13:48:44.725Z,55.37
2022-08-16T13:51:17.448Z,55.00
2022-08-16T13:53:49.686Z,54.62
2022-08-16T13:56:34.512Z,53.77
2022-08-16T13:59:19.843Z,52.97
2022-08-16T14:01:55.890Z,52.47
2022-08-16T14:04:31.408Z,52.74
2022-08-16T14:07:01.690Z,52.60
2022-08-16T14:09:33.100Z,52.50
2022-08-16T14:12:09.874Z,52.11
2022-08-16T14:14:47.279Z,51.75
2022-08-16T14:17:16.593Z,51.80
2022-08-16T14:19:46.334Z,51.87
2022-08-16T14:22:30.218Z,51.89
2022-08-16T14:25:07.279Z,52.15
2022-08-16T14:27:42.252Z,52.22
2022-08-16T14:30:15.449Z,52.53
2022-08-16T14:32:50.878Z,52.61
2022-08-16T14:35:29.237Z,52.55
2022-08-16T14:38:06.658Z,52.59
2022-08-16T14:40:35.843Z,52.32
2022-08-16T14:43:07.571Z,51.90
2022-08-16T14:45:36.760Z,51.89
2022-08-16T14:48:07.238Z,51.83
2022-08-16T14:50:36.708Z,51.75
2022-08-16T14:53:09.688Z,51.86
2022-08-16T14:55:41.084Z,51.85
2022-08-16T14:58:10.475Z,51.66
2022-08-16T15:00:50.186Z,51.78
2022-08-16T15:03:22.813Z,51.90
2022-08-16T15:05:54.105Z,51.93
2022-08-16T15:08:36.162Z,52.06
2022-08-16T15:11:07.706Z,52.31
2022-08-16T15:13:40.588Z,52.37
2022-08-16T15:16:09.714Z,52.51
2022-08-16T15:18:39.365Z,52.68
2022-08-16T15:21:08.920Z,52.71
2022-08-16T15:23:40.495Z,52.86
2022-08-16T15:26:11.159Z,52.99
2022-08-16T15:28:50.559Z,52.85
2022-08-16T15:31:19.525Z,53.08
2022-08-16T15:33:55.151Z,53.13
2022-08-16T15:36:26.755Z,53.11
2022-08-16T15:39:05.823Z,53.26
2022-08-16T15:42:01.254Z,53.16
2022-08-16T15:44:38.886Z,53.36
2022-08-16T15:47:21.625Z,53.62
2022-08-16T15:49:56.186Z,53.62
2022-08-16T15:52:32.519Z,53.77
2022-08-16T15:55:23.800Z,53.71
2022-08-16T15:57:56.743Z,53.80
2022-08-16T16:00:26.671Z,53.98
2022-08-16T16:03:03.308Z,54.08
2022-08-16T16:05:32.039Z,54.13
2022-08-16T16:08:11.066Z,54.37
2022-08-16T16:10:54.247Z,54.51
2022-08-16T16:13:25.374Z,54.54
2022-08-16T16:15:56.982Z,54.74
2022-08-16T16:18:29.355Z,54.81
2022-08-16T16:21:01.813Z,54.73
2022-08-16T16:23:36.354Z,54.78
2022-08-16T16:26:15.673Z,55.00
2022-08-16T16:29:08.254Z,54.97
2022-08-16T16:31:41.029Z,55.28
2022-08-16T16:34:13.193Z,55.37
2022-08-16T16:36:43.604Z,55.68
2022-08-16T16:39:18.994Z,55.68
2022-08-16T16:41:47.421Z,55.86
2022-08-16T16:44:18.184Z,55.88
2022-08-16T16:47:00.985Z,55.81
2022-08-16T16:49:32.473Z,55.85
2022-08-16T16:52:07.189Z,55.89
2022-08-16T16:54:37.501Z,56.05
2022-08-16T16:57:27.699Z,56.03
2022-08-16T16:59:57.082Z,56.15
2022-08-16T17:02:41.488Z,56.11
2022-08-16T17:05:15.443Z,56.26
2022-08-16T17:07:44.231Z,56.12
2022-08-16T17:10:13.007Z,56.21
2022-08-16T17:13:05.020Z,56.15
2022-08-16T17:15:36.503Z,56.04
2022-08-16T17:19:14.870Z,56.09
2022-08-16T17:20:54.742Z,56.06
2022-08-16T17:23:59.682Z,56.33
2022-08-16T17:26:13.737Z,56.20
2022-08-16T17:31:38.501Z,56.28
2022-08-16T17:34:28.944Z,56.26
2022-08-16T17:37:00.809Z,56.32
2022-08-16T17:39:28.675Z,56.19
2022-08-16T17:39:35.280Z,56.42
2022-08-16T17:42:27.156Z,56.43
2022-08-16T17:44:55.772Z,56.64
2022-08-16T17:47:25.304Z,56.63
2022-08-16T17:49:54.091Z,56.72
2022-08-16T17:52:22.648Z,56.62
2022-08-16T17:54:51.313Z,56.65
2022-08-16T17:57:20.027Z,56.91
2022-08-16T17:59:49.562Z,56.87
2022-08-16T18:02:43.910Z,56.94
2022-08-16T18:05:30.262Z,57.04
2022-08-16T18:07:59.631Z,56.93
2022-08-16T18:10:33.532Z,57.09
2022-08-16T18:13:05.464Z,57.33
2022-08-16T18:15:37.715Z,57.26
2022-08-16T18:18:06.963Z,57.31
2022-08-16T18:20:54.156Z,57.08
2022-08-16T18:23:26.427Z,57.21
2022-08-16T18:25:58.537Z,57.02
2022-08-16T18:28:29.355Z,56.93
2022-08-16T18:31:01.116Z,57.22
2022-08-16T18:33:33.681Z,57.18
2022-08-16T18:36:21.253Z,57.21
2022-08-16T18:38:51.758Z,57.04
2022-08-16T18:41:23.880Z,57.10
2022-08-16T18:44:23.246Z,57.20
2022-08-16T18:46:45.151Z,57.13
2022-08-16T18:49:17.986Z,57.32
2022-08-16T18:51:47.146Z,57.36
2022-08-16T18:54:30.056Z,57.31
2022-08-16T18:56:59.190Z,57.39
2022-08-16T18:59:30.211Z,57.40
2022-08-16T19:02:05.020Z,57.41
2022-08-16T19:04:55.732Z,57.83
2022-08-16T19:07:31.139Z,57.87
2022-08-16T19:10:02.054Z,57.90
2022-08-16T19:12:38.659Z,58.11
2022-08-16T19:15:15.966Z,58.05
2022-08-16T19:17:45.727Z,58.05
2022-08-16T19:20:16.541Z,58.05
2022-08-16T19:25:47.653Z,58.38
2022-08-16T19:28:49.031Z,58.43
2022-08-16T19:31:13.542Z,58.75
2022-08-16T19:33:53.247Z,58.75
2022-08-16T19:36:31.413Z,58.85
2022-08-16T19:39:05.384Z,58.82
2022-08-16T19:41:36.708Z,58.98
2022-08-16T19:44:06.827Z,59.07
2022-08-16T19:46:36.238Z,59.18
2022-08-16T19:49:06.366Z,59.16
2022-08-16T19:51:38.958Z,59.45
2022-08-16T19:54:07.404Z,59.39
2022-08-16T19:56:42.902Z,59.31
2022-08-16T19:59:19.408Z,59.59
2022-08-16T20:01:51.404Z,59.70
2022-08-16T20:04:21.054Z,59.96
2022-08-16T20:06:50.009Z,59.91
2022-08-16T20:09:18.851Z,59.97
2022-08-16T20:11:51.467Z,60.11
2022-08-16T20:14:25.703Z,60.14
2022-08-16T20:16:55.158Z,60.23
2022-08-16T20:19:24.476Z,60.49
2022-08-16T20:21:53.470Z,60.52
2022-08-16T20:24:34.156Z,60.50
2022-08-16T20:27:05.843Z,60.58
2022-08-16T20:29:35.449Z,60.49
2022-08-16T20:32:06.304Z,60.86
2022-08-16T20:34:35.512Z,60.97
2022-08-16T20:37:05.754Z,60.82
2022-08-16T20:39:35.082Z,60.96
2022-08-16T20:42:19.520Z,60.90
2022-08-16T20:44:52.200Z,61.26
2022-08-16T20:47:23.244Z,61.37
2022-08-16T20:49:53.577Z,61.21
2022-08-16T20:52:23.801Z,61.20
2022-08-16T20:54:55.210Z,61.35
2022-08-16T20:57:24.893Z,61.76
2022-08-16T20:59:53.556Z,61.70
2022-08-16T21:02:26.143Z,61.87
2022-08-16T21:04:54.645Z,61.67
2022-08-16T21:07:23.823Z,61.83
2022-08-16T21:09:53.386Z,61.91
2022-08-16T21:12:22.938Z,61.95
2022-08-16T21:14:55.534Z,61.99
2022-08-16T21:17:24.248Z,62.03
2022-08-16T21:19:54.314Z,62.05
2022-08-16T21:22:23.814Z,62.30
2022-08-16T21:24:53.830Z,62.22
2022-08-16T21:27:26.030Z,62.35
2022-08-16T21:29:56.901Z,62.40
2022-08-16T21:32:35.008Z,62.73
2022-08-16T21:35:11.891Z,62.67
2022-08-16T21:38:28.198Z,62.67
2022-08-16T21:40:35.383Z,62.77
2022-08-16T21:43:12.186Z,62.85
2022-08-16T21:45:43.307Z,62.75
2022-08-16T21:48:12.429Z,62.88
2022-08-16T21:50:42.556Z,62.93
2022-08-16T21:53:14.056Z,63.03
2022-08-16T21:55:44.765Z,63.03
2022-08-16T21:58:13.418Z,63.23
2022-08-16T22:00:42.964Z,63.31
2022-08-16T22:03:12.759Z,63.23
2022-08-16T22:05:44.682Z,63.27
2022-08-16T22:08:13.780Z,63.31
2022-08-16T22:11:04.698Z,63.16
2022-08-16T22:13:32.870Z,63.24
2022-08-16T22:16:01.749Z,63.38
2022-08-16T22:18:30.567Z,63.53
2022-08-16T22:20:59.100Z,63.64
2022-08-16T22:23:30.573Z,63.78
2022-08-16T22:25:59.180Z,63.92
2022-08-16T22:28:27.664Z,63.89
2022-08-16T22:30:56.372Z,64.10
2022-08-16T22:33:27.445Z,64.05
2022-08-16T22:35:58.994Z,64.16
2022-08-16T22:38:54.847Z,64.20
2022-08-16T22:41:18.835Z,64.18
2022-08-16T22:43:51.214Z,64.38
2022-08-16T22:46:20.250Z,64.39
2022-08-16T22:48:49.641Z,64.48
2022-08-16T22:51:18.829Z,64.55
2022-08-16T22:53:48.014Z,64.48
2022-08-16T22:56:16.930Z,64.57
2022-08-16T22:58:46.429Z,64.69
2022-08-16T23:01:17.367Z,64.76
2022-08-16T23:03:45.932Z,64.71
2022-08-16T23:06:15.189Z,64.69
2022-08-16T23:08:44.367Z,64.64
2022-08-16T23:11:20.393Z,64.64
2022-08-16T23:13:53.608Z,64.82
2022-08-16T23:16:32.997Z,64.94
2022-08-16T23:19:04.736Z,64.97
2022-08-16T23:21:33.409Z,65.06
2022-08-16T23:24:02.396Z,65.06
2022-08-16T23:26:44.354Z,65.21
2022-08-16T23:29:23.741Z,65.28
2022-08-16T23:31:57.489Z,65.25
2022-08-16T23:34:27.631Z,65.31
2022-08-16T23:36:56.596Z,65.35
2022-08-16T23:39:25.625Z,65.48
2022-08-16T23:41:54.973Z,65.45
2022-08-16T23:44:55.487Z,65.48
2022-08-16T23:47:12.571Z,65.36
2022-08-16T23:50:01.599Z,65.48
2022-08-16T23:52:54.855Z,65.52
2022-08-16T23:55:19.263Z,65.59
2022-08-16T23:57:48.161Z,65.56
